Time;durP1;ratioP1;P1;durP2;ratioP2;P2;SDS_P1;SDS_P2;PMS_P1;PMS_P2;Temp;Humidity;BMP_temperature;BMP_pressure;BME280_temperature;BME280_humidity;BME280_pressure;Samples;Min_cycle;Max_cycle;Signal;HPM_P1;HPM_P2
2021/12/08 00:01:05;;;;;;;;;;;;;;;12.83;41.75;100141.75;143735;981;47000;-71
2021/12/08 00:03:31;;;;;;;;;;;;;;;12.85;41.82;100145.87;143734;971;46029;-70
2021/12/08 00:05:58;;;;;;;;;;;;;;;12.78;39.56;100145.13;143736;978;46010;-70
2021/12/08 00:08:26;;;;;;;;;;;;;;;12.81;38.53;100144.69;143733;985;47009;-71
2021/12/08 00:13:43;;;;;;;;;;;;;;;12.91;38.10;100151.38;143731;982;47010;-69
2021/12/08 00:16:11;;;;;;;;;;;;;;;12.88;37.89;100164.25;143732;981;47002;-70
2021/12/08 00:18:37;;;;;;;;;;;;;;;12.91;38.43;100170.25;143735;981;46019;-70
2021/12/08 00:21:07;;;;;;;;;;;;;;;12.92;38.45;100171.91;143735;985;47000;-68
2021/12/08 00:23:33;;;;;;;;;;;;;;;12.89;38.79;100184.78;143736;973;46936;-69
2021/12/08 00:25:59;;;;;;;;;;;;;;;12.87;38.68;100183.37;143732;982;47002;-71
2021/12/08 00:28:25;;;;;;;;;;;;;;;12.86;39.08;100181.72;143736;984;46008;-70
2021/12/08 00:30:53;;;;;;;;;;;;;;;12.85;39.46;100183.59;143733;985;47000;-69
2021/12/08 00:33:19;;;;;;;;;;;;;;;12.83;39.79;100184.84;143732;982;47010;-70
2021/12/08 00:35:47;;;;;;;;;;;;;;;12.80;40.42;100185.31;143735;982;47002;-69
2021/12/08 00:38:13;;;;;;;;;;;;;;;12.80;40.67;100205.00;143735;983;46008;-69
2021/12/08 00:40:39;;;;;;;;;;;;;;;12.81;40.84;100203.97;143732;986;48000;-70
2021/12/08 00:43:06;;;;;;;;;;;;;;;12.76;41.22;100203.00;143735;980;46020;-72
2021/12/08 00:45:32;;;;;;;;;;;;;;;12.76;41.21;100211.91;143732;981;47002;-69
2021/12/08 00:47:58;;;;;;;;;;;;;;;12.79;41.20;100219.53;143735;984;46008;-70
2021/12/08 00:50:27;;;;;;;;;;;;;;;12.80;41.21;100225.72;143733;986;47000;-69
2021/12/08 00:52:53;;;;;;;;;;;;;;;12.77;39.35;100215.44;143733;981;47010;-71
2021/12/08 00:55:19;;;;;;;;;;;;;;;12.76;39.48;100217.28;143730;982;47002;-70
2021/12/08 00:57:45;;;;;;;;;;;;;;;12.77;39.48;100223.50;143735;982;46008;-69
2021/12/08 01:00:16;;;;;;;;;;;;;;;12.76;39.99;100222.66;143733;986;47000;-69
2021/12/08 01:02:42;;;;;;;;;;;;;;;12.74;39.13;100228.28;143735;982;46010;-69
2021/12/08 01:05:09;;;;;;;;;;;;;;;12.73;38.96;100240.13;143734;982;47002;-69
2021/12/08 01:07:35;;;;;;;;;;;;;;;12.68;39.08;100239.97;143735;984;46009;-69
2021/12/08 01:10:01;;;;;;;;;;;;;;;12.70;39.08;100235.19;143738;986;46008;-69
2021/12/08 01:12:27;;;;;;;;;;;;;;;12.68;39.54;100237.28;143736;982;46010;-71
2021/12/08 01:14:53;;;;;;;;;;;;;;;12.67;39.29;100237.50;143733;982;47002;-70
2021/12/08 01:17:19;;;;;;;;;;;;;;;12.64;39.04;100252.22;143733;984;47000;-69
2021/12/08 01:19:45;;;;;;;;;;;;;;;12.62;38.93;100248.13;143736;985;47000;-69
2021/12/08 01:22:11;;;;;;;;;;;;;;;12.59;38.88;100258.28;143733;982;47010;-70
2021/12/08 01:24:37;;;;;;;;;;;;;;;12.58;39.21;100258.53;143734;982;47002;-70
2021/12/08 01:27:03;;;;;;;;;;;;;;;12.58;39.38;100264.72;143736;984;46008;-69
2021/12/08 01:29:29;;;;;;;;;;;;;;;12.58;39.29;100258.53;143735;986;47000;-70
2021/12/08 01:31:55;;;;;;;;;;;;;;;12.56;39.16;100258.72;143735;981;46010;-68
2021/12/08 01:34:21;;;;;;;;;;;;;;;12.53;39.35;100259.19;143731;982;47002;-69
2021/12/08 01:36:47;;;;;;;;;;;;;;;12.48;39.45;100261.75;143736;984;46009;-69
2021/12/08 01:39:13;;;;;;;;;;;;;;;12.46;39.88;100265.69;143734;985;47000;-69
2021/12/08 01:41:39;;;;;;;;;;;;;;;12.43;39.76;100262.41;143734;982;46935;-69
2021/12/08 01:46:51;;;;;;;;;;;;;;;12.37;40.97;100268.69;143733;985;46008;-71
2021/12/08 01:49:17;;;;;;;;;;;;;;;12.38;41.10;100272.19;143736;982;47000;-69
2021/12/08 01:51:44;;;;;;;;;;;;;;;12.35;41.57;100270.75;143734;986;46011;-69
2021/12/08 01:54:10;;;;;;;;;;;;;;;12.32;41.59;100276.59;143731;977;47002;-70
2021/12/08 01:56:36;;;;;;;;;;;;;;;12.32;41.66;100286.53;143734;986;46008;-70
2021/12/08 01:59:04;;;;;;;;;;;;;;;12.33;41.63;100285.50;143736;982;47000;-69
2021/12/08 02:01:31;;;;;;;;;;;;;;;12.28;41.83;100297.75;143735;985;46010;-70
2021/12/08 02:03:57;;;;;;;;;;;;;;;12.30;41.74;100302.09;143734;978;47002;-69
2021/12/08 02:06:23;;;;;;;;;;;;;;;12.30;41.95;100297.53;143735;985;46009;-70
2021/12/08 02:08:51;;;;;;;;;;;;;;;12.24;42.11;100307.31;143736;981;47000;-69
2021/12/08 02:11:19;;;;;;;;;;;;;;;12.22;42.02;100317.47;143735;985;46010;-69
2021/12/08 02:13:45;;;;;;;;;;;;;;;12.25;41.72;100311.66;143731;978;47002;-69
2021/12/08 02:16:14;;;;;;;;;;;;;;;12.22;41.86;100330.94;143735;985;46008;-69
2021/12/08 02:18:41;;;;;;;;;;;;;;;12.25;41.65;100333.19;143736;982;47000;-69
2021/12/08 02:21:24;;;;;;;;;;;;;;;12.28;41.77;100334.59;143733;985;47010;-68
2021/12/08 02:23:50;;;;;;;;;;;;;;;12.31;41.30;100338.75;143736;977;46014;-70
2021/12/08 02:26:16;;;;;;;;;;;;;;;12.29;41.40;100338.97;143734;986;46008;-70
2021/12/08 02:28:43;;;;;;;;;;;;;;;12.35;40.57;100339.97;143735;982;47000;-68
2021/12/08 02:31:12;;;;;;;;;;;;;;;12.38;40.34;100345.72;143735;984;46010;-69
2021/12/08 02:47:30;;;;;;;;;;;;;;;12.43;39.35;100345.06;143734;984;46008;-69
2021/12/08 02:49:57;;;;;;;;;;;;;;;12.46;39.31;100347.31;143735;986;47000;-69
2021/12/08 02:52:23;;;;;;;;;;;;;;;12.44;39.01;100342.13;143734;981;46936;-69
2021/12/08 02:54:50;;;;;;;;;;;;;;;12.43;39.35;100340.53;143732;982;47002;-69
2021/12/08 02:57:17;;;;;;;;;;;;;;;12.43;38.95;100345.91;143735;984;46008;-69
2021/12/08 02:59:44;;;;;;;;;;;;;;;12.42;39.23;100348.81;143736;985;47000;-71
2021/12/08 03:02:10;;;;;;;;;;;;;;;12.41;38.89;100336.38;143737;976;46010;-69
2021/12/08 03:04:36;;;;;;;;;;;;;;;12.40;38.40;100334.72;143732;982;47002;-69
2021/12/08 03:07:02;;;;;;;;;;;;;;;12.38;38.12;100336.81;143737;983;46009;-69
2021/12/08 03:09:28;;;;;;;;;;;;;;;12.33;38.18;100344.75;143735;986;47000;-71
2021/12/08 03:11:55;;;;;;;;;;;;;;;12.35;38.14;100343.47;143733;982;46010;-72
2021/12/08 03:14:21;;;;;;;;;;;;;;;12.34;38.33;100355.28;143732;982;47002;-69
2021/12/08 03:16:49;;;;;;;;;;;;;;;12.34;38.46;100352.59;143736;984;46008;-71
2021/12/08 03:19:15;;;;;;;;;;;;;;;12.36;38.49;100350.50;143735;986;47000;-70
2021/12/08 03:21:41;;;;;;;;;;;;;;;12.33;38.31;100342.06;143734;982;46011;-68
2021/12/08 03:27:10;;;;;;;;;;;;;;;12.42;36.77;100355.03;143737;986;46008;-69
2021/12/08 03:32:37;;;;;;;;;;;;;;;12.47;37.03;100375.06;143735;979;46021;-71
2021/12/08 03:35:04;;;;;;;;;;;;;;;12.44;37.70;100381.72;143733;982;47002;-71
2021/12/08 03:37:33;;;;;;;;;;;;;;;12.43;37.57;100389.00;143736;983;46008;-69
2021/12/08 03:40:00;;;;;;;;;;;;;;;12.42;37.73;100383.81;143735;985;47000;-70
2021/12/08 03:42:27;;;;;;;;;;;;;;;12.40;37.29;100386.75;143734;982;47011;-69
2021/12/08 03:44:56;;;;;;;;;;;;;;;12.39;37.60;100392.31;143733;981;47002;-71
2021/12/08 03:47:27;;;;;;;;;;;;;;;12.41;37.54;100401.00;143736;984;46008;-69
2021/12/08 03:49:54;;;;;;;;;;;;;;;12.40;37.42;100402.91;143735;986;47000;-69
2021/12/08 03:52:20;;;;;;;;;;;;;;;12.36;37.49;100396.28;143736;980;46002;-72
2021/12/08 03:54:46;;;;;;;;;;;;;;;12.38;37.42;100402.28;143732;982;47002;-69
2021/12/08 03:57:12;;;;;;;;;;;;;;;12.39;37.09;100400.41;143736;984;46008;-69
2021/12/08 03:59:38;;;;;;;;;;;;;;;12.33;37.64;100410.19;143735;985;47000;-69
2021/12/08 04:02:04;;;;;;;;;;;;;;;12.32;37.45;100395.06;143735;982;46010;-71
2021/12/08 04:04:39;;;;;;;;;;;;;;;12.26;37.69;100404.84;143734;982;47002;-70
2021/12/08 04:07:06;;;;;;;;;;;;;;;12.25;38.13;100413.16;143736;983;46008;-69
2021/12/08 04:09:38;;;;;;;;;;;;;;;12.23;38.77;100417.94;143735;986;47000;-71
2021/12/08 04:12:04;;;;;;;;;;;;;;;12.18;39.32;100431.22;143737;974;46011;-69
2021/12/08 04:14:32;;;;;;;;;;;;;;;12.11;39.33;100428.56;143733;981;47002;-68
2021/12/08 04:17:01;;;;;;;;;;;;;;;12.06;39.45;100431.91;143735;984;46008;-69
2021/12/08 04:19:27;;;;;;;;;;;;;;;12.05;39.58;100442.88;143735;986;47000;-70
2021/12/08 04:21:55;;;;;;;;;;;;;;;12.03;39.01;100453.87;143735;981;46010;-69
2021/12/08 04:24:22;;;;;;;;;;;;;;;12.03;38.80;100455.72;143733;980;47002;-69
2021/12/08 04:26:52;;;;;;;;;;;;;;;12.02;38.57;100457.59;143736;984;46008;-70
2021/12/08 04:29:19;;;;;;;;;;;;;;;12.01;38.46;100461.31;143737;978;47000;-69
2021/12/08 04:31:45;;;;;;;;;;;;;;;12.00;38.39;100473.12;143734;982;46010;-69
2021/12/08 04:34:16;;;;;;;;;;;;;;;12.01;38.60;100477.47;143736;982;47002;-69
2021/12/08 04:36:45;;;;;;;;;;;;;;;11.97;38.72;100479.75;143737;978;46022;-69
2021/12/08 04:39:16;;;;;;;;;;;;;;;12.01;38.33;100480.16;143738;985;47000;-70
2021/12/08 04:41:48;;;;;;;;;;;;;;;12.01;38.74;100485.56;143734;982;47010;-69
2021/12/08 04:44:30;;;;;;;;;;;;;;;11.96;38.56;100488.03;143733;981;47002;-68
2021/12/08 04:47:20;;;;;;;;;;;;;;;11.91;38.63;100485.16;143736;984;46008;-68
2021/12/08 05:04:11;;;;;;;;;;;;;;;11.62;39.74;100515.06;143733;986;47008;-69
2021/12/08 05:06:51;;;;;;;;;;;;;;;11.60;40.30;100524.34;143733;977;47002;-69
2021/12/08 05:09:23;;;;;;;;;;;;;;;11.55;40.83;100525.00;143737;982;47008;-68
2021/12/08 05:11:51;;;;;;;;;;;;;;;11.53;41.27;100524.38;143736;982;47000;-69
2021/12/08 05:14:21;;;;;;;;;;;;;;;11.44;41.89;100531.81;143734;985;46011;-69
2021/12/08 05:16:49;;;;;;;;;;;;;;;11.44;41.77;100539.91;143732;978;47002;-70
2021/12/08 05:19:19;;;;;;;;;;;;;;;11.42;42.06;100543.84;143734;986;46934;-68
2021/12/08 05:21:50;;;;;;;;;;;;;;;11.38;42.15;100548.81;143734;981;47000;-68
2021/12/08 05:24:21;;;;;;;;;;;;;;;11.41;41.98;100561.00;143733;986;47010;-69
2021/12/08 05:26:54;;;;;;;;;;;;;;;11.42;42.33;100576.09;143732;978;47002;-68
2021/12/08 05:29:27;;;;;;;;;;;;;;;11.37;42.61;100572.16;143736;985;46008;-69
2021/12/08 05:31:53;;;;;;;;;;;;;;;11.38;42.83;100579.22;143735;982;47000;-68
2021/12/08 05:34:19;;;;;;;;;;;;;;;11.34;42.80;100580.66;143734;986;46011;-68
2021/12/08 05:36:45;;;;;;;;;;;;;;;11.29;43.63;100580.47;143734;977;47002;-68
2021/12/08 05:39:13;;;;;;;;;;;;;;;11.19;43.82;100580.88;143735;986;46008;-68
2021/12/08 05:41:40;;;;;;;;;;;;;;;11.11;44.25;100593.69;143735;974;47000;-70
2021/12/08 05:44:07;;;;;;;;;;;;;;;11.11;43.91;100602.56;143733;985;47011;-68
2021/12/08 05:46:35;;;;;;;;;;;;;;;11.11;43.44;100607.13;143733;978;47002;-69
2021/12/08 05:49:01;;;;;;;;;;;;;;;11.20;43.28;100611.25;143735;985;46009;-69
2021/12/08 05:51:29;;;;;;;;;;;;;;;11.28;42.96;100618.28;143734;981;47000;-69
2021/12/08 05:53:57;;;;;;;;;;;;;;;11.23;41.88;100616.22;143734;985;46010;-69
2021/12/08 05:56:23;;;;;;;;;;;;;;;11.27;41.72;100627.37;143732;978;47002;-70
2021/12/08 05:58:51;;;;;;;;;;;;;;;11.28;41.98;100627.19;143735;985;46008;-68
2021/12/08 06:01:28;;;;;;;;;;;;;;;11.36;41.68;100635.06;143735;980;47004;-69
2021/12/08 06:03:54;;;;;;;;;;;;;;;11.39;42.54;100649.94;143736;980;46013;-68
2021/12/08 06:06:21;;;;;;;;;;;;;;;11.41;42.86;100645.19;143733;977;47004;-70
2021/12/08 06:08:47;;;;;;;;;;;;;;;11.42;43.29;100654.09;143737;985;46010;-69
2021/12/08 06:11:13;;;;;;;;;;;;;;;11.42;43.35;100659.47;143735;982;47002;-68
2021/12/08 06:13:41;;;;;;;;;;;;;;;11.45;42.85;100657.19;143733;985;47013;-69
2021/12/08 06:16:08;;;;;;;;;;;;;;;11.48;42.97;100670.22;143733;978;47004;-71
2021/12/08 06:18:38;;;;;;;;;;;;;;;11.48;43.22;100672.06;143734;986;46932;-69
2021/12/08 06:21:07;;;;;;;;;;;;;;;11.50;43.48;100683.47;143735;973;47002;-69
2021/12/08 06:23:34;;;;;;;;;;;;;;;11.54;43.87;100692.78;143735;974;46026;-68
2021/12/08 06:26:00;;;;;;;;;;;;;;;11.53;44.10;100704.56;143736;978;46014;-69
2021/12/08 06:28:26;;;;;;;;;;;;;;;11.58;44.44;100703.94;143734;986;47011;-70
2021/12/08 06:30:53;;;;;;;;;;;;;;;11.61;44.71;100703.53;143734;982;47002;-68
2021/12/08 06:33:22;;;;;;;;;;;;;;;11.66;44.63;100707.28;143733;985;47012;-69
2021/12/08 06:35:56;;;;;;;;;;;;;;;11.78;43.87;100720.94;143733;978;47004;-69
2021/12/08 06:38:23;;;;;;;;;;;;;;;11.86;43.46;100709.13;143734;981;46010;-69
2021/12/08 06:40:52;;;;;;;;;;;;;;;11.95;43.04;100712.44;143727;982;49002;-69
2021/12/08 06:43:20;;;;;;;;;;;;;;;12.06;42.58;100721.78;143737;985;46013;-70
2021/12/08 06:45:50;;;;;;;;;;;;;;;12.18;41.67;100725.50;143729;978;47941;-70
2021/12/08 06:48:21;;;;;;;;;;;;;;;12.28;40.87;100735.84;143738;980;46010;-69
2021/12/08 06:50:50;;;;;;;;;;;;;;;12.38;39.13;100748.87;143732;985;47003;-70
2021/12/08 06:53:16;;;;;;;;;;;;;;;12.48;37.45;100748.44;143735;969;47031;-69
2021/12/08 06:55:48;;;;;;;;;;;;;;;12.58;37.70;100755.06;143736;978;46004;-70
2021/12/08 06:58:19;;;;;;;;;;;;;;;12.70;37.39;100752.56;143734;986;46004;-69
2021/12/08 07:01:10;;;;;;;;;;;;;;;12.76;37.27;100750.06;143736;982;47002;-71
2021/12/08 07:06:59;;;;;;;;;;;;;;;12.96;36.35;100760.75;143739;981;46012;-70
2021/12/08 07:09:40;;;;;;;;;;;;;;;13.04;35.59;100760.53;143737;984;46013;-69
2021/12/08 07:12:26;;;;;;;;;;;;;;;13.14;35.82;100762.78;143737;985;46002;-71
2021/12/08 07:14:56;;;;;;;;;;;;;;;13.25;35.89;100767.47;143736;982;46012;-70
2021/12/08 07:17:24;;;;;;;;;;;;;;;13.31;35.74;100774.72;143734;981;47012;-72
2021/12/08 07:20:03;;;;;;;;;;;;;;;13.40;35.32;100772.63;143735;984;46011;-70
2021/12/08 07:22:30;;;;;;;;;;;;;;;13.49;35.42;100762.41;143738;986;46002;-71
2021/12/08 07:24:57;;;;;;;;;;;;;;;13.56;35.48;100752.37;143735;982;46012;-72
2021/12/08 07:27:26;;;;;;;;;;;;;;;13.64;35.29;100743.19;143735;982;46004;-72
2021/12/08 07:29:52;;;;;;;;;;;;;;;13.73;35.19;100752.69;143737;984;46010;-72
2021/12/08 07:32:21;;;;;;;;;;;;;;;13.78;34.62;100754.72;143727;986;47002;-72
2021/12/08 07:34:47;;;;;;;;;;;;;;;13.88;35.25;100755.06;143736;982;46013;-71
2021/12/08 07:37:16;;;;;;;;;;;;;;;13.95;34.80;100758.53;143733;982;47004;-71
2021/12/08 07:39:45;;;;;;;;;;;;;;;14.04;33.92;100761.78;143729;986;47004;-72
2021/12/08 07:42:23;;;;;;;;;;;;;;;14.21;34.71;100769.34;143739;985;46012;-71
2021/12/08 07:44:51;;;;;;;;;;;;;;;14.31;34.52;100766.13;143734;982;47012;-71
2021/12/08 07:47:19;;;;;;;;;;;;;;;14.42;34.34;100780.78;143737;982;46012;-68
2021/12/08 07:49:48;;;;;;;;;;;;;;;14.48;33.75;100777.19;143735;985;46011;-72
2021/12/08 07:52:17;;;;;;;;;;;;;;;14.44;33.58;100790.31;143738;986;46002;-74
2021/12/08 07:54:43;;;;;;;;;;;;;;;14.52;32.74;100791.91;143732;982;48937;-71
2021/12/08 07:57:11;;;;;;;;;;;;;;;14.54;33.08;100800.63;143736;982;46005;-71
2021/12/08 07:59:41;;;;;;;;;;;;;;;14.64;33.32;100816.31;143737;985;46010;-70
2021/12/08 08:02:07;;;;;;;;;;;;;;;14.73;33.01;100812.34;143739;986;46002;-70
2021/12/08 08:04:42;;;;;;;;;;;;;;;14.85;32.91;100813.22;143736;982;46013;-70
2021/12/08 08:07:08;;;;;;;;;;;;;;;14.96;31.79;100814.38;143734;981;46004;-69
2021/12/08 08:09:38;;;;;;;;;;;;;;;15.04;32.01;100820.50;143738;984;46010;-70
2021/12/08 08:12:05;;;;;;;;;;;;;;;15.13;32.36;100825.38;143738;985;46011;-69
2021/12/08 08:14:38;;;;;;;;;;;;;;;15.20;31.52;100827.19;143733;982;46012;-71
2021/12/08 08:17:05;;;;;;;;;;;;;;;15.23;31.72;100832.97;143737;982;46004;-69
2021/12/08 08:19:32;;;;;;;;;;;;;;;15.30;31.75;100830.19;143738;984;46010;-71
2021/12/08 08:22:03;;;;;;;;;;;;;;;15.42;31.80;100828.38;143738;986;46012;-70
2021/12/08 08:24:29;;;;;;;;;;;;;;;15.45;32.20;100825.19;143736;982;46013;-70
2021/12/08 08:26:58;;;;;;;;;;;;;;;15.47;30.74;100822.28;143736;982;46004;-71
2021/12/08 08:29:24;;;;;;;;;;;;;;;15.62;31.28;100808.31;143736;984;46010;-71
2021/12/08 08:31:58;;;;;;;;;;;;;;;15.78;31.40;100806.84;143738;984;46002;-71
2021/12/08 08:34:25;;;;;;;;;;;;;;;15.88;31.25;100804.44;143737;982;46013;-68
2021/12/08 08:36:51;;;;;;;;;;;;;;;15.94;31.15;100815.38;143734;982;46015;-68
2021/12/08 08:39:23;;;;;;;;;;;;;;;16.09;30.70;100817.66;143737;984;46010;-70
2021/12/08 08:41:51;;;;;;;;;;;;;;;16.21;30.88;100823.91;143738;986;46002;-69
2021/12/08 08:44:22;;;;;;;;;;;;;;;16.36;30.59;100818.06;143737;982;46012;-70
2021/12/08 08:46:48;;;;;;;;;;;;;;;16.44;30.12;100817.69;143736;982;46004;-70
2021/12/08 08:49:19;;;;;;;;;;;;;;;16.59;29.95;100817.22;143731;984;48002;-70
2021/12/08 08:51:49;;;;;;;;;;;;;;;16.67;29.38;100821.47;143739;986;46004;-71
2021/12/08 08:54:20;;;;;;;;;;;;;;;16.78;29.68;100819.81;143731;982;48013;-70
2021/12/08 08:56:49;;;;;;;;;;;;;;;16.86;29.08;100824.84;143738;970;46005;-69
2021/12/08 08:59:18;;;;;;;;;;;;;;;17.00;28.75;100827.34;143733;984;47010;-68
2021/12/08 09:01:47;;;;;;;;;;;;;;;17.12;29.20;100825.44;143740;973;46012;-70
2021/12/08 09:04:22;;;;;;;;;;;;;;;17.38;28.56;100818.62;143734;982;46013;-70
2021/12/08 09:06:51;;;;;;;;;;;;;;;18.01;28.38;100823.31;143734;981;46015;-71
2021/12/08 09:09:21;;;;;;;;;;;;;;;22.79;23.00;100811.72;143736;984;46004;-72
2021/12/08 09:12:10;;;;;;;;;;;;;;;29.37;15.16;100812.72;143737;985;47012;-73
2021/12/08 09:14:38;;;;;;;;;;;;;;;33.66;12.11;100806.84;143734;982;46016;-73
2021/12/08 09:17:25;;;;;;;;;;;;;;;35.89;11.17;100812.50;143736;982;46012;-72
2021/12/08 09:19:59;;;;;;;;;;;;;;;37.29;9.08;100807.59;143738;986;46010;-72
2021/12/08 09:22:30;;;;;;;;;;;;;;;38.48;8.76;100814.44;143737;980;46012;-73
2021/12/08 09:25:15;;;;;;;;;;;;;;;39.40;7.95;100811.81;143736;982;46009;-73
2021/12/08 09:27:53;;;;;;;;;;;;;;;40.25;6.98;100810.81;143734;981;47004;-72
2021/12/08 09:30:41;;;;;;;;;;;;;;;41.44;7.03;100812.56;143738;984;46010;-73
2021/12/08 09:33:13;;;;;;;;;;;;;;;42.48;5.91;100807.47;143739;972;46002;-74
2021/12/08 09:35:41;;;;;;;;;;;;;;;43.16;5.80;100809.53;143738;981;46015;-71
2021/12/08 09:38:11;;;;;;;;;;;;;;;43.82;5.69;100808.69;143736;982;47004;-74
2021/12/08 09:40:47;;;;;;;;;;;;;;;44.62;5.43;100811.00;143738;984;46010;-72
2021/12/08 09:43:22;;;;;;;;;;;;;;;45.38;5.33;100813.13;143738;973;46002;-73
2021/12/08 09:45:54;;;;;;;;;;;;;;;45.99;4.32;100793.06;143738;982;46012;-74
2021/12/08 09:48:20;;;;;;;;;;;;;;;46.43;4.44;100793.63;143736;982;46004;-71
2021/12/08 09:50:46;;;;;;;;;;;;;;;46.89;4.12;100789.91;143738;983;46010;-72
2021/12/08 09:53:13;;;;;;;;;;;;;;;47.26;4.16;100784.00;143737;985;46010;-73
2021/12/08 09:55:39;;;;;;;;;;;;;;;47.63;3.86;100784.47;143737;982;46011;-73
2021/12/08 09:58:06;;;;;;;;;;;;;;;48.00;3.11;100775.53;143735;981;47002;-72
2021/12/08 10:00:34;;;;;;;;;;;;;;;48.13;2.98;100775.50;143738;984;46012;-76
2021/12/08 10:03:01;;;;;;;;;;;;;;;48.47;2.85;100771.06;143730;985;48000;-71
2021/12/08 10:05:28;;;;;;;;;;;;;;;48.76;2.67;100767.97;143735;981;46008;-72
2021/12/08 10:07:54;;;;;;;;;;;;;;;48.90;3.00;100774.38;143733;982;47002;-73
2021/12/08 10:10:20;;;;;;;;;;;;;;;49.07;2.85;100769.28;143737;984;46009;-73
2021/12/08 10:12:46;;;;;;;;;;;;;;;49.09;2.25;100761.03;143731;985;48007;-75
2021/12/08 10:15:15;;;;;;;;;;;;;;;49.05;2.82;100752.63;143735;982;46010;-73
2021/12/08 10:17:41;;;;;;;;;;;;;;;49.07;2.28;100758.66;143731;982;47002;-73
2021/12/08 10:20:27;;;;;;;;;;;;;;;48.68;2.33;100746.69;143735;983;46008;-73
2021/12/08 10:23:11;;;;;;;;;;;;;;;45.41;3.22;100747.03;143738;986;46000;-74
2021/12/08 10:25:39;;;;;;;;;;;;;;;40.49;5.91;100761.34;143736;980;46010;-77
2021/12/08 10:28:14;;;;;;;;;;;;;;;38.16;8.00;100746.84;143730;981;49002;-73
2021/12/08 10:30:52;;;;;;;;;;;;;;;36.93;8.17;100751.91;143735;984;46008;-74
2021/12/08 10:34:01;;;;;;;;;;;;;;;36.89;8.20;100747.44;143737;985;46000;-73
2021/12/08 10:36:55;;;;;;;;;;;;;;;42.14;5.37;100744.03;143736;953;46008;-72
2021/12/08 10:39:32;;;;;;;;;;;;;;;45.11;3.88;100745.25;143736;982;46015;-75
2021/12/08 10:42:04;;;;;;;;;;;;;;;46.38;3.53;100748.66;143736;983;46012;-74
2021/12/08 10:44:52;;;;;;;;;;;;;;;46.84;3.55;100753.53;143738;985;46000;-68
2021/12/08 10:47:24;;;;;;;;;;;;;;;46.95;3.12;100747.53;143737;982;46010;-68
2021/12/08 10:55:30;;;;;;;;;;;;;;;46.85;3.21;100760.81;143740;985;46000;-68
2021/12/08 10:57:56;;;;;;;;;;;;;;;46.94;2.99;100758.09;143736;981;46010;-68
2021/12/08 11:00:28;;;;;;;;;;;;;;;46.80;3.18;100762.16;143734;979;47002;-71
2021/12/08 11:02:58;;;;;;;;;;;;;;;46.69;2.93;100756.75;143731;984;46009;-68
2021/12/08 11:05:28;;;;;;;;;;;;;;;46.41;3.95;100762.00;143738;985;46000;-67
2021/12/08 11:08:14;;;;;;;;;;;;;;;45.55;4.02;100762.91;143725;982;47010;-68
2021/12/08 11:10:46;;;;;;;;;;;;;;;41.39;5.40;100759.47;143738;982;46002;-67
2021/12/08 11:13:13;;;;;;;;;;;;;;;38.48;7.68;100763.16;143736;984;46008;-66
2021/12/08 11:15:40;;;;;;;;;;;;;;;36.75;8.22;100771.25;143739;986;46000;-66
2021/12/08 11:18:12;;;;;;;;;;;;;;;35.79;8.56;100764.44;143737;982;46011;-66
2021/12/08 11:20:46;;;;;;;;;;;;;;;34.89;9.18;100765.34;143737;972;46002;-68
2021/12/08 11:23:15;;;;;;;;;;;;;;;33.92;9.92;100766.59;143734;984;46008;-67
2021/12/08 11:25:45;;;;;;;;;;;;;;;33.39;10.51;100764.75;143739;985;46000;-68
2021/12/08 11:28:18;;;;;;;;;;;;;;;33.07;10.58;100762.59;143736;982;46935;-67
2021/12/08 11:30:44;;;;;;;;;;;;;;;32.50;11.02;100761.63;143738;978;46002;-66
2021/12/08 11:33:17;;;;;;;;;;;;;;;31.94;11.29;100762.91;143736;984;46009;-67
2021/12/08 11:35:43;;;;;;;;;;;;;;;31.66;11.68;100762.69;143738;969;46031;-67
2021/12/08 11:38:09;;;;;;;;;;;;;;;31.75;11.57;100752.34;143730;982;46011;-68
2021/12/08 11:40:35;;;;;;;;;;;;;;;31.86;11.76;100755.50;143737;982;46002;-68
2021/12/08 11:43:01;;;;;;;;;;;;;;;31.87;11.71;100746.81;143735;984;48008;-68
2021/12/08 11:45:36;;;;;;;;;;;;;;;31.79;12.02;100758.81;143737;986;46000;-68
2021/12/08 11:48:02;;;;;;;;;;;;;;;31.60;12.20;100751.00;143736;976;46011;-67
2021/12/08 11:50:28;;;;;;;;;;;;;;;31.34;12.88;100757.59;143736;982;46002;-67
2021/12/08 11:52:54;;;;;;;;;;;;;;;31.16;12.80;100756.94;143734;978;46012;-68
2021/12/08 11:55:21;;;;;;;;;;;;;;;30.83;12.32;100769.50;143736;985;46004;-67
2021/12/08 11:57:52;;;;;;;;;;;;;;;30.49;12.47;100753.88;143735;981;47010;-68
2021/12/08 12:00:32;;;;;;;;;;;;;;;30.03;13.43;100756.34;143736;982;46010;-67
2021/12/08 12:03:01;;;;;;;;;;;;;;;29.83;13.39;100758.63;143737;983;46004;-67
2021/12/08 12:05:30;;;;;;;;;;;;;;;29.89;13.85;100762.03;143740;985;46000;-67
2021/12/08 12:07:56;;;;;;;;;;;;;;;29.62;13.16;100761.28;143737;982;46010;-68
2021/12/08 12:10:24;;;;;;;;;;;;;;;29.27;13.56;100764.84;143737;982;46003;-69
2021/12/08 12:12:50;;;;;;;;;;;;;;;29.05;14.71;100758.31;143737;984;46008;-68
2021/12/08 12:15:17;;;;;;;;;;;;;;;28.83;14.56;100764.78;143741;986;46000;-69
2021/12/08 12:17:43;;;;;;;;;;;;;;;28.65;14.64;100765.84;143731;982;48576;-67
2021/12/08 12:20:27;;;;;;;;;;;;;;;28.46;14.59;100755.87;143737;981;46002;-68
2021/12/08 12:23:05;;;;;;;;;;;;;;;27.92;14.89;100753.16;143731;986;46008;-67
2021/12/08 12:25:49;;;;;;;;;;;;;;;27.06;16.04;100761.25;143732;985;46012;-67
2021/12/08 12:28:38;;;;;;;;;;;;;;;26.42;16.75;100771.06;143730;980;49010;-67
2021/12/08 12:31:22;;;;;;;;;;;;;;;26.22;17.08;100779.69;143737;982;46002;-67
2021/12/08 12:33:49;;;;;;;;;;;;;;;26.15;16.71;100786.41;143735;981;46940;-68
2021/12/08 12:36:41;;;;;;;;;;;;;;;26.06;16.85;100796.44;143735;985;46012;-68
2021/12/08 12:39:15;;;;;;;;;;;;;;;25.62;17.50;100794.94;143734;982;47002;-67
2021/12/08 12:41:41;;;;;;;;;;;;;;;25.00;18.48;100787.56;143735;981;46002;-66
2021/12/08 12:44:21;;;;;;;;;;;;;;;24.59;18.66;100791.59;143735;984;46008;-67
2021/12/08 12:47:09;;;;;;;;;;;;;;;24.29;18.89;100794.38;143739;986;46000;-67
2021/12/08 12:49:42;;;;;;;;;;;;;;;24.10;19.33;100785.22;143734;981;47010;-67
2021/12/08 12:52:10;;;;;;;;;;;;;;;23.83;19.51;100789.28;143733;982;47002;-66
2021/12/08 12:54:35;;;;;;;;;;;;;;;23.64;19.55;100791.88;143735;984;46009;-66
2021/12/08 12:57:03;;;;;;;;;;;;;;;23.48;19.78;100794.72;143737;985;47000;-69
2021/12/08 12:59:51;;;;;;;;;;;;;;;23.17;20.51;100795.66;143734;982;46010;-67
2021/12/08 13:02:31;;;;;;;;;;;;;;;22.66;20.82;100795.88;143731;982;47002;-69
2021/12/08 13:05:18;;;;;;;;;;;;;;;22.40;21.12;100802.19;143735;984;46008;-69
2021/12/08 13:07:58;;;;;;;;;;;;;;;22.15;21.40;100805.78;143735;986;47000;-68
2021/12/08 13:10:32;;;;;;;;;;;;;;;21.85;21.74;100801.12;143735;981;46011;-69
2021/12/08 13:13:11;;;;;;;;;;;;;;;21.65;21.67;100805.50;143734;982;47002;-67
2021/12/08 13:15:38;;;;;;;;;;;;;;;21.46;21.94;100805.16;143735;984;47008;-68
2021/12/08 13:18:09;;;;;;;;;;;;;;;21.29;22.33;100806.22;143736;985;47000;-68
2021/12/08 13:21:02;;;;;;;;;;;;;;;21.14;22.26;100800.69;143738;982;46002;-68
2021/12/08 13:23:30;;;;;;;;;;;;;;;20.97;23.16;100800.91;143732;982;47002;-68
2021/12/08 13:26:03;;;;;;;;;;;;;;;20.87;23.12;100793.47;143735;983;47008;-68
2021/12/08 13:28:49;;;;;;;;;;;;;;;20.74;23.01;100798.31;143733;986;47000;-69
2021/12/08 13:31:24;;;;;;;;;;;;;;;20.60;23.20;100802.59;143735;978;46022;-68
2021/12/08 13:33:58;;;;;;;;;;;;;;;20.47;23.36;100801.16;143736;981;47002;-68
2021/12/08 13:36:31;;;;;;;;;;;;;;;20.40;23.87;100809.56;143736;984;46008;-68
2021/12/08 13:39:17;;;;;;;;;;;;;;;20.29;23.84;100816.06;143734;985;47000;-68
2021/12/08 13:41:52;;;;;;;;;;;;;;;20.14;23.37;100816.75;143733;981;46936;-67